Time;durP1;ratioP1;P1;durP2;ratioP2;P2;SDS_P1;SDS_P2;PMS_P1;PMS_P2;Temp;Humidity;BMP_temperature;BMP_pressure;BME280_temperature;BME280_humidity;BME280_pressure;Samples;Min_cycle;Max_cycle;Signal;HPM_P1;HPM_P2
2023/06/24 00:00:57;;;;;;;19.85;12.85;;;16.40;99.90;;;;;;4984528;28;20034;-85
2023/06/24 00:03:23;;;;;;;18.20;11.35;;;16.50;99.90;;;;;;4984865;28;20490;-86
2023/06/24 00:05:49;;;;;;;20.73;13.15;;;16.50;99.90;;;;;;4953301;29;20078;-86
2023/06/24 00:08:19;;;;;;;20.52;11.43;;;16.50;99.90;;;;;;4983416;28;20028;-87
2023/06/24 00:10:46;;;;;;;16.88;10.65;;;16.60;99.90;;;;;;4980465;28;20025;-86
2023/06/24 00:13:12;;;;;;;16.83;11.95;;;16.50;99.90;;;;;;4952027;28;20039;-86
2023/06/24 00:15:42;;;;;;;18.48;12.52;;;16.50;99.90;;;;;;4967037;28;20024;-85
2023/06/24 00:18:11;;;;;;;20.00;12.63;;;16.40;99.90;;;;;;4951865;29;20023;-87
2023/06/24 00:20:37;;;;;;;19.90;11.77;;;16.40;99.90;;;;;;4983762;28;20472;-84
2023/06/24 00:23:03;;;;;;;26.80;13.52;;;16.30;99.90;;;;;;4952336;28;20024;-89
2023/06/24 00:25:30;;;;;;;19.98;13.40;;;16.30;99.90;;;;;;4952194;29;20523;-86
2023/06/24 00:27:56;;;;;;;23.85;12.38;;;16.30;99.90;;;;;;4984238;28;20122;-90
2023/06/24 00:30:22;;;;;;;25.83;14.40;;;16.30;99.90;;;;;;4953087;29;20106;-85
2023/06/24 00:32:48;;;;;;;24.20;14.38;;;16.20;99.90;;;;;;4968501;28;20481;-86
2023/06/24 00:35:17;;;;;;;23.10;14.55;;;16.20;99.90;;;;;;4957189;29;20107;-87
2023/06/24 00:37:45;;;;;;;19.58;13.57;;;16.20;99.90;;;;;;4971691;28;20063;-86
2023/06/24 00:40:11;;;;;;;22.33;13.30;;;16.10;99.90;;;;;;4956120;29;20015;-86
2023/06/24 00:42:37;;;;;;;24.00;13.90;;;16.10;99.90;;;;;;4956801;28;20023;-88
2023/06/24 00:45:04;;;;;;;22.55;14.13;;;16.00;99.90;;;;;;4987975;28;20404;-85
2023/06/24 00:47:32;;;;;;;26.27;14.55;;;16.10;99.90;;;;;;4956476;29;20024;-86
2023/06/24 00:49:57;;;;;;;26.92;12.95;;;16.00;99.90;;;;;;4971247;28;20055;-86
2023/06/24 00:52:23;;;;;;;19.02;12.45;;;16.00;99.90;;;;;;4956676;28;20055;-90
2023/06/24 00:54:49;;;;;;;21.70;13.95;;;16.00;99.90;;;;;;4987983;28;20027;-88
2023/06/24 00:57:17;;;;;;;22.77;14.52;;;16.00;99.90;;;;;;4956210;29;20030;-87
2023/06/24 00:59:45;;;;;;;16.50;11.68;;;16.00;99.90;;;;;;4950267;29;20023;-86
2023/06/24 01:02:11;;;;;;;15.57;11.90;;;16.10;99.90;;;;;;4956266;28;20249;-84
2023/06/24 01:04:38;;;;;;;20.70;12.32;;;16.10;99.90;;;;;;4957044;29;20465;-86
2023/06/24 01:07:05;;;;;;;25.40;12.75;;;16.10;99.90;;;;;;4956758;29;20034;-88
2023/06/24 01:09:31;;;;;;;17.35;12.10;;;16.10;99.90;;;;;;4956342;28;20029;-87
2023/06/24 01:11:57;;;;;;;17.55;12.20;;;16.10;99.90;;;;;;4956220;28;20492;-87
2023/06/24 01:14:23;;;;;;;19.98;12.38;;;16.20;99.90;;;;;;4956883;29;20028;-87
2023/06/24 01:16:56;;;;;;;18.98;13.32;;;16.20;99.90;;;;;;4956240;29;20026;-86
2023/06/24 01:19:28;;;;;;;19.50;12.13;;;16.10;99.90;;;;;;4956255;29;20034;-86
2023/06/24 01:21:59;;;;;;;18.35;11.45;;;16.10;99.90;;;;;;4956134;28;20034;-85
2023/06/24 01:24:47;;;;;;;21.08;14.32;;;16.20;99.90;;;;;;4954135;29;20030;-85
2023/06/24 01:28:26;;;;;;;22.73;13.20;;;16.10;99.90;;;;;;4950201;29;20031;-86
2023/06/24 01:31:23;;;;;;;18.50;12.27;;;16.00;99.90;;;;;;4877457;29;20494;-86
2023/06/24 01:34:06;;;;;;;20.65;12.93;;;16.00;99.90;;;;;;4914635;29;20545;-85
2023/06/24 01:36:34;;;;;;;25.38;12.30;;;16.10;99.90;;;;;;4955457;28;20026;-85
2023/06/24 01:39:06;;;;;;;22.48;12.90;;;16.00;99.90;;;;;;4955284;29;20431;-85
2023/06/24 01:41:41;;;;;;;22.63;12.20;;;15.90;99.90;;;;;;4955460;28;20042;-87
2023/06/24 01:44:10;;;;;;;25.38;13.88;;;15.90;99.90;;;;;;4969981;28;20039;-86
2023/06/24 01:46:37;;;;;;;17.77;11.88;;;15.80;99.90;;;;;;4955467;29;20058;-87
2023/06/24 01:49:07;;;;;;;18.98;13.07;;;15.80;99.90;;;;;;4955970;29;20046;-87
2023/06/24 01:51:35;;;;;;;20.10;11.95;;;15.70;99.90;;;;;;4963727;28;20036;-86
2023/06/24 01:54:05;;;;;;;20.58;11.35;;;15.70;99.90;;;;;;4969994;28;20364;-86
2023/06/24 01:56:34;;;;;;;19.45;11.95;;;15.60;99.90;;;;;;4955234;29;20034;-86
2023/06/24 01:59:03;;;;;;;20.42;12.65;;;15.60;99.90;;;;;;4955512;29;20055;-88
2023/06/24 02:01:35;;;;;;;18.48;12.30;;;15.60;99.90;;;;;;4970525;28;20031;-86
2023/06/24 02:04:04;;;;;;;21.25;12.73;;;15.60;99.90;;;;;;4955030;29;20468;-87
2023/06/24 02:06:30;;;;;;;24.23;13.15;;;15.60;99.90;;;;;;4985385;28;20472;-87
2023/06/24 02:09:00;;;;;;;25.38;13.57;;;15.70;99.90;;;;;;4955091;29;20075;-86
2023/06/24 02:11:29;;;;;;;25.67;14.27;;;15.80;99.90;;;;;;4954245;28;20499;-88
2023/06/24 02:13:56;;;;;;;23.25;13.52;;;15.90;99.90;;;;;;4954996;29;20380;-86
2023/06/24 02:16:23;;;;;;;18.83;12.90;;;15.80;99.90;;;;;;4955336;29;20027;-87
2023/06/24 02:18:50;;;;;;;26.52;14.23;;;15.80;99.90;;;;;;4948170;29;20074;-86
2023/06/24 02:21:18;;;;;;;18.20;13.38;;;15.70;99.90;;;;;;4969731;28;20028;-87
2023/06/24 02:23:44;;;;;;;28.02;14.63;;;15.70;99.90;;;;;;4954250;29;20023;-87
2023/06/24 02:26:10;;;;;;;25.17;12.52;;;15.70;99.90;;;;;;4954822;29;20446;-87
2023/06/24 02:28:38;;;;;;;21.90;12.13;;;15.70;99.90;;;;;;4954850;29;20105;-87
2023/06/24 02:31:05;;;;;;;20.77;12.00;;;15.60;99.90;;;;;;4954512;29;20074;-87
2023/06/24 02:33:31;;;;;;;19.17;11.65;;;15.60;99.90;;;;;;4955486;28;20547;-88
2023/06/24 02:35:57;;;;;;;18.17;10.80;;;15.50;99.90;;;;;;4955082;29;20027;-87
2023/06/24 02:38:23;;;;;;;20.38;12.75;;;15.40;99.90;;;;;;4954214;29;20031;-86
2023/06/24 02:40:49;;;;;;;20.77;12.63;;;15.30;99.90;;;;;;4954237;29;20521;-86
2023/06/24 02:43:16;;;;;;;19.48;12.73;;;15.20;99.90;;;;;;4954388;28;20066;-86
2023/06/24 02:45:42;;;;;;;22.98;12.10;;;15.10;99.90;;;;;;4954682;29;20035;-86
2023/06/24 02:48:10;;;;;;;26.08;12.73;;;15.00;99.90;;;;;;4954640;29;20130;-86
2023/06/24 02:50:37;;;;;;;21.92;12.38;;;15.00;99.90;;;;;;4969083;28;20022;-86
2023/06/24 02:53:04;;;;;;;24.35;12.98;;;14.90;99.90;;;;;;4984580;28;20038;-86
2023/06/24 02:55:30;;;;;;;27.35;13.57;;;14.90;99.90;;;;;;4967784;28;20015;-86
2023/06/24 02:57:57;;;;;;;29.88;15.50;;;14.80;99.90;;;;;;4953861;28;20124;-86
2023/06/24 03:00:23;;;;;;;34.97;16.52;;;14.80;99.90;;;;;;4968677;28;20114;-87
2023/06/24 03:02:50;;;;;;;28.70;16.02;;;14.70;99.90;;;;;;4954153;28;20090;-87
2023/06/24 03:05:16;;;;;;;27.10;15.15;;;14.70;99.90;;;;;;4953834;29;20020;-86
2023/06/24 03:07:43;;;;;;;29.02;15.43;;;14.70;99.90;;;;;;4953376;29;20016;-85
2023/06/24 03:10:10;;;;;;;26.73;14.77;;;14.70;99.90;;;;;;4953372;29;20023;-86
2023/06/24 03:12:36;;;;;;;40.65;16.95;;;14.60;99.90;;;;;;4954160;28;20154;-86
2023/06/24 03:15:02;;;;;;;27.45;15.00;;;14.60;99.90;;;;;;4954013;29;20114;-85
2023/06/24 03:17:28;;;;;;;27.73;14.88;;;14.60;99.90;;;;;;4953642;29;20034;-85
2023/06/24 03:19:53;;;;;;;20.85;13.15;;;14.60;99.90;;;;;;4953601;29;20073;-86
2023/06/24 03:22:19;;;;;;;20.45;13.60;;;14.50;99.90;;;;;;4953475;28;20038;-86
2023/06/24 03:24:45;;;;;;;24.08;13.77;;;14.50;99.90;;;;;;4952396;29;20023;-85
2023/06/24 03:27:10;;;;;;;24.45;13.68;;;14.50;99.90;;;;;;4953934;29;20054;-86
2023/06/24 03:29:36;;;;;;;25.73;13.68;;;14.50;99.90;;;;;;4953434;29;20033;-85
2023/06/24 03:32:02;;;;;;;24.83;14.15;;;14.40;99.90;;;;;;4953424;28;20061;-85
2023/06/24 03:34:28;;;;;;;21.92;13.05;;;14.50;99.90;;;;;;4953483;29;20019;-86
2023/06/24 03:36:54;;;;;;;23.23;13.25;;;14.40;99.90;;;;;;4953422;29;20370;-86
2023/06/24 03:39:20;;;;;;;23.52;13.93;;;14.40;99.90;;;;;;4952868;29;20027;-85
2023/06/24 03:41:46;;;;;;;25.02;13.77;;;14.40;99.90;;;;;;4953168;28;20015;-86
2023/06/24 03:44:12;;;;;;;23.25;13.90;;;14.40;99.90;;;;;;4968335;28;20384;-85
2023/06/24 03:46:37;;;;;;;20.67;13.45;;;14.30;99.90;;;;;;4953481;28;20015;-85
2023/06/24 03:49:04;;;;;;;20.45;12.15;;;14.30;99.90;;;;;;4953156;29;20457;-85
2023/06/24 03:51:29;;;;;;;16.88;10.90;;;14.20;99.90;;;;;;4952512;28;20031;-86
2023/06/24 03:53:55;;;;;;;23.23;12.93;;;14.20;99.90;;;;;;4952681;29;20027;-86
2023/06/24 03:56:20;;;;;;;20.05;12.55;;;14.30;99.90;;;;;;4952713;29;20420;-85
2023/06/24 03:58:46;;;;;;;21.15;13.00;;;14.20;99.90;;;;;;4967387;28;20122;-84
2023/06/24 04:01:12;;;;;;;24.73;13.35;;;14.30;99.90;;;;;;4952687;29;20022;-85
2023/06/24 04:03:37;;;;;;;25.70;13.63;;;14.30;99.90;;;;;;4967983;28;20030;-85
2023/06/24 04:06:03;;;;;;;26.15;14.70;;;14.40;99.90;;;;;;4967685;28;20024;-85
2023/06/24 04:08:29;;;;;;;23.98;13.70;;;14.40;99.90;;;;;;4952378;28;20035;-86
2023/06/24 04:11:03;;;;;;;23.48;13.73;;;14.40;99.90;;;;;;4952556;29;20019;-85
2023/06/24 04:13:29;;;;;;;25.45;13.55;;;14.40;99.90;;;;;;4952943;28;20027;-84
2023/06/24 04:15:55;;;;;;;25.33;15.05;;;14.50;99.90;;;;;;4952968;29;20035;-86
2023/06/24 04:18:20;;;;;;;22.17;12.63;;;14.50;99.90;;;;;;4967426;28;20027;-85
2023/06/24 04:20:46;;;;;;;21.88;12.98;;;14.50;99.90;;;;;;4953023;29;20116;-86
2023/06/24 04:23:14;;;;;;;19.02;12.27;;;14.60;99.90;;;;;;4952705;28;20031;-85
2023/06/24 04:25:40;;;;;;;25.45;12.55;;;14.60;99.90;;;;;;4951683;29;20066;-85
2023/06/24 04:28:06;;;;;;;22.55;11.77;;;14.70;99.90;;;;;;4952869;28;20031;-86
2023/06/24 04:30:32;;;;;;;19.50;12.02;;;14.70;99.90;;;;;;4953086;29;20384;-85
2023/06/24 04:32:58;;;;;;;23.42;12.77;;;14.70;99.90;;;;;;4983836;28;20126;-86
2023/06/24 04:35:24;;;;;;;23.05;11.88;;;14.80;99.90;;;;;;4967578;28;20536;-85
2023/06/24 04:37:50;;;;;;;23.65;13.57;;;14.90;99.90;;;;;;4952517;29;20110;-87
2023/06/24 04:40:19;;;;;;;27.05;12.20;;;15.00;99.90;;;;;;4952617;29;20103;-86
2023/06/24 04:42:45;;;;;;;19.40;11.52;;;15.10;99.90;;;;;;4953228;28;20031;-86
2023/06/24 04:45:11;;;;;;;20.75;11.57;;;15.30;99.90;;;;;;4952643;29;20465;-86
2023/06/24 04:47:37;;;;;;;25.23;12.80;;;15.40;99.90;;;;;;4967289;28;20042;-86
2023/06/24 04:50:04;;;;;;;20.85;11.38;;;15.50;99.90;;;;;;4967727;28;20485;-86
2023/06/24 04:52:29;;;;;;;19.33;11.88;;;15.50;99.90;;;;;;4951609;28;20038;-86
2023/06/24 04:54:55;;;;;;;21.98;13.48;;;15.70;99.90;;;;;;4952423;29;20019;-86
2023/06/24 04:57:24;;;;;;;25.38;13.82;;;15.80;99.90;;;;;;4952941;29;20110;-87
2023/06/24 04:59:50;;;;;;;25.75;13.35;;;15.90;99.90;;;;;;4967942;28;20023;-86
2023/06/24 05:02:16;;;;;;;25.27;13.50;;;16.00;99.90;;;;;;4952556;28;20078;-86
2023/06/24 05:04:41;;;;;;;21.58;12.25;;;16.10;99.90;;;;;;4952610;29;20051;-88
2023/06/24 05:07:07;;;;;;;21.92;13.77;;;16.20;99.90;;;;;;4946309;29;20463;-85
2023/06/24 05:09:32;;;;;;;19.95;12.43;;;16.40;99.90;;;;;;4951835;29;20460;-86
2023/06/24 05:11:58;;;;;;;23.15;14.75;;;16.50;99.90;;;;;;4952203;28;20134;-88
2023/06/24 05:14:24;;;;;;;21.90;14.40;;;16.60;99.90;;;;;;4946184;29;20019;-86
2023/06/24 05:16:50;;;;;;;21.02;12.82;;;16.70;99.90;;;;;;4967450;28;20019;-88
2023/06/24 05:19:16;;;;;;;20.65;13.00;;;16.60;99.90;;;;;;4984504;28;20547;-87
2023/06/24 05:21:42;;;;;;;20.52;11.80;;;16.60;99.90;;;;;;4986851;28;20027;-88
2023/06/24 05:24:07;;;;;;;20.10;12.90;;;16.50;99.90;;;;;;4954401;29;20015;-87
2023/06/24 05:26:33;;;;;;;17.17;11.77;;;16.60;99.90;;;;;;4955370;29;20028;-87
2023/06/24 05:28:58;;;;;;;18.02;12.50;;;16.60;99.90;;;;;;4955363;29;20066;-86
2023/06/24 05:31:24;;;;;;;21.73;12.95;;;16.80;99.90;;;;;;4986626;28;20027;-87
2023/06/24 05:33:50;;;;;;;18.33;12.00;;;17.00;99.90;;;;;;4955522;29;20038;-87
2023/06/24 05:36:15;;;;;;;19.65;11.10;;;17.10;99.50;;;;;;4956295;29;20051;-87
2023/06/24 05:38:41;;;;;;;19.48;12.20;;;17.20;98.60;;;;;;4955522;29;20596;-86
2023/06/24 05:41:06;;;;;;;18.83;12.27;;;17.40;98.70;;;;;;4955394;29;20035;-87
2023/06/24 05:43:32;;;;;;;18.30;11.38;;;17.50;99.10;;;;;;4955396;28;20015;-86
2023/06/24 05:45:58;;;;;;;20.52;12.00;;;17.60;98.50;;;;;;4955216;29;20416;-86
2023/06/24 05:48:23;;;;;;;18.02;11.55;;;17.60;98.50;;;;;;4955863;29;20074;-88
2023/06/24 05:50:49;;;;;;;16.95;11.52;;;17.70;98.10;;;;;;4970935;28;20395;-86
2023/06/24 05:53:14;;;;;;;14.25;9.32;;;17.70;98.10;;;;;;4970530;28;20071;-88
2023/06/24 05:55:40;;;;;;;15.30;10.10;;;17.70;96.60;;;;;;4955601;29;20062;-86
2023/06/24 05:58:06;;;;;;;14.50;9.80;;;17.60;97.20;;;;;;4970518;28;20023;-86
2023/06/24 06:00:31;;;;;;;15.63;9.45;;;17.60;97.30;;;;;;4970246;28;20030;-87
2023/06/24 06:02:57;;;;;;;15.15;9.65;;;17.50;96.90;;;;;;4955498;28;20025;-87
2023/06/24 06:05:22;;;;;;;16.52;9.52;;;17.50;97.10;;;;;;4955608;29;20019;-86
2023/06/24 06:07:48;;;;;;;17.20;9.40;;;17.50;97.20;;;;;;4986440;28;20383;-86
2023/06/24 06:10:17;;;;;;;12.88;9.18;;;17.50;97.00;;;;;;4954907;29;20431;-86
2023/06/24 06:12:43;;;;;;;13.30;8.95;;;17.50;97.60;;;;;;4954890;28;20419;-88
2023/06/24 06:15:09;;;;;;;14.70;9.73;;;17.50;97.40;;;;;;4953995;29;20082;-85
2023/06/24 06:17:35;;;;;;;17.52;9.48;;;17.60;97.60;;;;;;4953309;29;20086;-86
2023/06/24 06:20:01;;;;;;;16.00;10.00;;;17.70;97.40;;;;;;4955619;29;20019;-88
2023/06/24 06:22:26;;;;;;;12.88;8.52;;;17.80;98.10;;;;;;4969870;28;20116;-89
2023/06/24 06:24:52;;;;;;;12.93;8.27;;;18.10;96.90;;;;;;4985412;28;20130;-87
2023/06/24 06:27:17;;;;;;;10.02;7.82;;;18.30;96.70;;;;;;4955434;29;20026;-87
2023/06/24 06:29:43;;;;;;;13.05;8.10;;;18.40;96.10;;;;;;4954797;28;20516;-89
2023/06/24 06:32:09;;;;;;;13.93;6.93;;;18.70;95.80;;;;;;4955218;28;20501;-86
2023/06/24 06:34:34;;;;;;;10.65;7.18;;;18.90;95.20;;;;;;4955497;29;20027;-88
2023/06/24 06:37:00;;;;;;;9.75;8.23;;;19.00;94.30;;;;;;4955497;29;20042;-88
2023/06/24 06:39:26;;;;;;;12.50;7.18;;;19.20;93.90;;;;;;4954515;29;20031;-88
2023/06/24 06:41:52;;;;;;;13.02;7.80;;;19.10;92.90;;;;;;4985573;28;20019;-87
2023/06/24 06:44:17;;;;;;;10.32;6.63;;;19.10;92.80;;;;;;4955213;29;20070;-88
2023/06/24 06:46:43;;;;;;;11.18;6.90;;;19.20;93.10;;;;;;4956129;29;20529;-89
2023/06/24 06:49:09;;;;;;;11.07;7.57;;;19.20;92.40;;;;;;4986391;28;20031;-87
2023/06/24 06:51:34;;;;;;;11.95;7.38;;;19.20;93.10;;;;;;4969921;28;20118;-87
2023/06/24 06:54:00;;;;;;;14.07;7.40;;;19.20;92.60;;;;;;4955054;29;20369;-91
2023/06/24 06:56:26;;;;;;;8.60;6.40;;;19.10;92.20;;;;;;4970338;28;20046;-89
2023/06/24 06:58:52;;;;;;;8.82;6.45;;;19.20;92.30;;;;;;4970093;28;20023;-90
2023/06/24 07:01:18;;;;;;;7.50;6.13;;;19.20;92.20;;;;;;4969599;28;20030;-88
2023/06/24 07:03:44;;;;;;;8.65;6.95;;;19.20;92.60;;;;;;4954891;28;20369;-88
2023/06/24 07:06:10;;;;;;;8.93;6.30;;;19.20;92.50;;;;;;4969456;28;20026;-88
2023/06/24 07:08:36;;;;;;;8.13;6.20;;;19.20;92.20;;;;;;4955131;29;20015;-90
2023/06/24 07:11:04;;;;;;;9.68;6.32;;;19.20;92.40;;;;;;4954814;29;20070;-89
2023/06/24 07:13:30;;;;;;;10.00;6.28;;;19.20;92.10;;;;;;4969734;28;20039;-90
2023/06/24 07:15:55;;;;;;;9.65;6.25;;;19.20;92.20;;;;;;4955064;29;20024;-88
2023/06/24 07:18:21;;;;;;;9.68;7.00;;;19.30;92.10;;;;;;4954917;29;20058;-88
2023/06/24 07:20:46;;;;;;;6.97;6.03;;;19.40;91.60;;;;;;4954919;29;20047;-88
2023/06/24 07:23:12;;;;;;;8.27;6.05;;;19.50;91.50;;;;;;4954655;28;20024;-88
2023/06/24 07:25:38;;;;;;;7.93;6.00;;;19.50;91.70;;;;;;4954627;29;20412;-89
2023/06/24 07:28:04;;;;;;;8.75;7.03;;;19.60;91.90;;;;;;4970263;28;20047;-90
2023/06/24 07:30:29;;;;;;;6.80;5.60;;;19.60;91.60;;;;;;4986716;28;20035;-89
2023/06/24 07:32:55;;;;;;;9.75;7.10;;;19.70;92.20;;;;;;4955798;28;20075;-90
2023/06/24 07:35:21;;;;;;;8.80;5.82;;;19.60;92.50;;;;;;4954942;29;20121;-88
2023/06/24 07:37:46;;;;;;;8.55;5.90;;;19.80;91.70;;;;;;4954802;29;20023;-89
2023/06/24 07:40:12;;;;;;;7.28;5.85;;;19.80;91.60;;;;;;4954702;29;20027;-88
2023/06/24 07:42:38;;;;;;;7.15;5.82;;;19.80;91.80;;;;;;4985388;28;20571;-89
2023/06/24 07:45:04;;;;;;;9.45;6.22;;;19.80;92.70;;;;;;4954405;29;20024;-88
2023/06/24 07:47:31;;;;;;;7.70;5.55;;;19.80;92.20;;;;;;4954882;29;20027;-90
2023/06/24 07:49:57;;;;;;;11.10;6.47;;;19.90;91.50;;;;;;4954412;29;20019;-88
2023/06/24 07:52:23;;;;;;;10.30;6.13;;;20.00;92.20;;;;;;4954351;28;20443;-89
2023/06/24 07:54:48;;;;;;;7.88;5.70;;;20.00;91.30;;;;;;4969704;28;20432;-89
2023/06/24 07:57:14;;;;;;;8.65;6.10;;;20.10;91.20;;;;;;4969752;28;20531;-89
2023/06/24 07:59:40;;;;;;;7.93;5.97;;;20.10;92.10;;;;;;4969558;28;20046;-91
2023/06/24 08:02:06;;;;;;;7.93;5.97;;;20.10;91.60;;;;;;4985741;28;20118;-89
2023/06/24 08:04:32;;;;;;;10.77;6.50;;;20.20;91.20;;;;;;4969564;28;20027;-89
2023/06/24 08:06:57;;;;;;;21.23;6.82;;;20.10;92.30;;;;;;4954521;29;20117;-89
2023/06/24 08:09:23;;;;;;;11.10;6.60;;;20.20;91.90;;;;;;4954198;29;20392;-89
2023/06/24 08:11:48;;;;;;;14.13;7.55;;;20.30;92.00;;;;;;4953954;28;20110;-90
2023/06/24 08:14:14;;;;;;;9.07;6.10;;;20.30;91.90;;;;;;4954595;29;20043;-88
2023/06/24 08:16:40;;;;;;;8.05;6.13;;;20.40;91.70;;;;;;4969410;28;20020;-91
2023/06/24 08:19:05;;;;;;;7.60;5.93;;;20.50;92.10;;;;;;4985737;28;20020;-91
2023/06/24 08:21:31;;;;;;;11.98;6.13;;;20.70;90.40;;;;;;4969452;28;20038;-88
2023/06/24 08:23:57;;;;;;;7.93;5.85;;;20.70;90.80;;;;;;4954306;29;20031;-90
2023/06/24 08:26:23;;;;;;;8.30;5.90;;;20.80;90.90;;;;;;4954026;29;20015;-89
2023/06/24 08:28:49;;;;;;;16.15;6.47;;;20.80;89.30;;;;;;4954503;29;20027;-90
2023/06/24 08:31:14;;;;;;;8.77;5.85;;;20.90;90.70;;;;;;4954101;29;20051;-89
2023/06/24 08:33:47;;;;;;;9.40;6.60;;;21.20;90.90;;;;;;4954162;28;20027;-89
2023/06/24 08:36:12;;;;;;;9.38;5.93;;;21.40;89.60;;;;;;4954310;29;20023;-89
2023/06/24 08:38:38;;;;;;;11.75;5.90;;;21.80;88.10;;;;;;4985676;28;20023;-91
2023/06/24 08:41:04;;;;;;;7.80;5.38;;;22.40;87.20;;;;;;4969550;28;20440;-91
2023/06/24 08:43:29;;;;;;;7.25;5.72;;;23.10;82.90;;;;;;4954278;28;20380;-89
2023/06/24 08:45:55;;;;;;;10.20;5.35;;;23.90;78.90;;;;;;4954172;29;20035;-89
2023/06/24 08:48:22;;;;;;;8.45;4.90;;;24.80;75.40;;;;;;4969216;28;20023;-90
2023/06/24 08:50:52;;;;;;;5.90;4.43;;;25.70;71.30;;;;;;4968965;28;20035;-89
2023/06/24 08:53:20;;;;;;;6.65;4.72;;;26.50;68.50;;;;;;4968902;28;20393;-88
2023/06/24 08:55:46;;;;;;;6.80;4.45;;;27.00;65.70;;;;;;4972563;28;20027;-88
2023/06/24 08:58:13;;;;;;;6.90;4.40;;;27.70;64.50;;;;;;4972523;28;20384;-92
2023/06/24 09:00:39;;;;;;;7.47;4.65;;;28.30;61.10;;;;;;4972492;28;20122;-90
2023/06/24 09:03:04;;;;;;;6.68;4.22;;;28.30;61.60;;;;;;4957241;28;20544;-89
2023/06/24 09:05:30;;;;;;;6.53;3.92;;;28.80;59.00;;;;;;4957545;28;20511;-91
2023/06/24 09:07:56;;;;;;;6.72;4.15;;;29.00;59.00;;;;;;4972966;28;20035;-91
2023/06/24 09:10:36;;;;;;;4.93;3.58;;;29.20;58.40;;;;;;4958059;29;20023;-89
2023/06/24 09:13:03;;;;;;;6.80;3.83;;;29.70;58.30;;;;;;4952498;28;20492;-89
2023/06/24 09:15:38;;;;;;;4.85;3.33;;;30.00;54.30;;;;;;4988040;28;20027;-92
2023/06/24 09:18:05;;;;;;;6.55;3.70;;;30.20;52.30;;;;;;4971640;28;20023;-92
2023/06/24 09:20:31;;;;;;;6.05;4.38;;;30.00;54.60;;;;;;4957979;29;20024;-91
2023/06/24 09:23:04;;;;;;;5.65;4.18;;;30.00;55.00;;;;;;4957770;28;20030;-91
2023/06/24 09:25:30;;;;;;;7.07;3.70;;;30.30;52.30;;;;;;4957725;29;20019;-89
2023/06/24 09:28:02;;;;;;;6.60;4.30;;;30.90;51.90;;;;;;4956409;29;20500;-91
2023/06/24 09:30:28;;;;;;;7.60;3.78;;;31.20;49.80;;;;;;4957360;29;20480;-90
2023/06/24 09:32:55;;;;;;;4.63;3.60;;;31.20;50.10;;;;;;4958002;28;20118;-92
2023/06/24 09:35:22;;;;;;;6.20;3.70;;;31.50;50.50;;;;;;4957281;29;20015;-91
2023/06/24 09:37:52;;;;;;;4.57;4.13;;;32.00;50.10;;;;;;4957680;29;20027;-91
2023/06/24 09:40:18;;;;;;;5.72;3.75;;;32.40;47.90;;;;;;4957802;29;20055;-91
2023/06/24 09:42:58;;;;;;;4.93;3.42;;;32.80;46.90;;;;;;4957157;28;20482;-92
2023/06/24 09:45:28;;;;;;;7.78;4.07;;;32.80;46.10;;;;;;4972725;28;20435;-91
2023/06/24 09:47:54;;;;;;;4.97;3.97;;;32.70;45.90;;;;;;4957072;29;20427;-87
2023/06/24 09:50:20;;;;;;;4.95;4.03;;;33.00;45.20;;;;;;4957822;29;20050;-91
2023/06/24 09:52:48;;;;;;;4.85;4.30;;;33.20;44.90;;;;;;4957453;28;20031;-93
2023/06/24 09:55:15;;;;;;;5.40;4.13;;;33.20;44.40;;;;;;4957468;29;20019;-90
2023/06/24 09:57:47;;;;;;;5.32;3.88;;;33.50;44.60;;;;;;4972103;28;20555;-92
2023/06/24 10:00:17;;;;;;;4.90;4.10;;;33.90;43.80;;;;;;4971514;28;20027;-90
2023/06/24 10:02:45;;;;;;;4.93;3.55;;;34.50;41.00;;;;;;4970966;28;20485;-93
2023/06/24 10:05:11;;;;;;;7.85;4.13;;;34.50;42.70;;;;;;4956831;28;20034;-87
2023/06/24 10:07:39;;;;;;;5.60;4.00;;;34.50;42.70;;;;;;4971097;28;20038;-89
2023/06/24 10:10:06;;;;;;;6.75;4.40;;;34.90;42.60;;;;;;4956304;29;20026;-93
2023/06/24 10:12:33;;;;;;;4.72;3.65;;;34.90;41.10;;;;;;4955856;28;20054;-88
2023/06/24 10:15:00;;;;;;;6.15;4.10;;;35.10;42.00;;;;;;4989584;28;20020;-89
2023/06/24 10:17:26;;;;;;;8.95;4.15;;;35.30;41.70;;;;;;4990237;28;20051;-93
2023/06/24 10:19:56;;;;;;;5.22;4.20;;;35.50;40.40;;;;;;4958033;29;20094;-91
2023/06/24 10:22:25;;;;;;;5.68;4.07;;;35.20;41.20;;;;;;4956885;28;20113;-89
2023/06/24 10:24:52;;;;;;;7.40;4.13;;;35.20;40.70;;;;;;4957286;29;20397;-92
2023/06/24 10:27:24;;;;;;;5.57;3.83;;;35.50;41.50;;;;;;4956873;28;20121;-92
2023/06/24 10:29:51;;;;;;;4.68;3.55;;;35.70;40.60;;;;;;4957453;28;20113;-93
2023/06/24 10:32:19;;;;;;;4.18;3.40;;;35.00;40.40;;;;;;4972245;28;20091;-92
2023/06/24 10:34:46;;;;;;;4.10;3.50;;;35.30;41.70;;;;;;4957046;29;20031;-91
2023/06/24 10:37:21;;;;;;;5.82;3.53;;;35.40;40.20;;;;;;4956092;29;20019;-93
2023/06/24 10:39:56;;;;;;;4.40;3.35;;;35.70;39.30;;;;;;4955409;29;20485;-93
2023/06/24 10:42:37;;;;;;;6.55;3.10;;;35.70;40.20;;;;;;4986837;28;20035;-91
2023/06/24 10:45:09;;;;;;;4.57;2.88;;;36.10;39.20;;;;;;4970942;28;20051;-90
2023/06/24 10:47:41;;;;;;;4.32;3.20;;;35.80;41.00;;;;;;4955629;29;20040;-91
2023/06/24 10:50:08;;;;;;;6.03;3.78;;;36.40;40.00;;;;;;4970384;28;20118;-91
2023/06/24 10:52:48;;;;;;;5.85;4.35;;;35.40;38.20;;;;;;4954809;28;20126;-87
2023/06/24 10:55:15;;;;;;;4.80;3.40;;;35.40;40.30;;;;;;4955039;29;20023;-92
2023/06/24 10:57:41;;;;;;;6.40;4.70;;;34.60;41.60;;;;;;4970363;28;20015;-90
2023/06/24 11:00:08;;;;;;;7.30;4.10;;;34.40;40.40;;;;;;4955282;29;20027;-88
2023/06/24 11:02:33;;;;;;;5.72;4.28;;;34.30;41.30;;;;;;4968955;28;20033;-87
2023/06/24 11:05:01;;;;;;;5.63;3.85;;;34.70;42.50;;;;;;4954767;29;20031;-86
2023/06/24 11:07:34;;;;;;;4.05;3.47;;;35.30;42.30;;;;;;4955415;29;20031;-91
2023/06/24 11:10:11;;;;;;;6.47;3.67;;;35.40;38.50;;;;;;4955397;29;20023;-90
2023/06/24 11:12:39;;;;;;;4.63;3.65;;;35.20;39.80;;;;;;4969552;28;20035;-91
2023/06/24 11:15:06;;;;;;;7.45;3.33;;;34.90;41.80;;;;;;4954741;29;20531;-90
2023/06/24 11:17:34;;;;;;;6.28;3.50;;;34.10;39.60;;;;;;4954347;28;20027;-89
2023/06/24 11:20:01;;;;;;;4.60;3.25;;;33.80;40.20;;;;;;4968852;28;20043;-89
2023/06/24 11:22:27;;;;;;;3.85;3.00;;;34.50;41.40;;;;;;4952741;28;20019;-90
2023/06/24 11:24:54;;;;;;;3.15;2.72;;;35.40;41.60;;;;;;4952911;29;20051;-88
2023/06/24 11:27:30;;;;;;;4.78;3.20;;;35.70;38.40;;;;;;4953394;29;20023;-89
2023/06/24 11:30:01;;;;;;;3.35;3.00;;;35.60;38.90;;;;;;4952560;29;20030;-89
2023/06/24 11:32:38;;;;;;;3.10;2.80;;;35.90;38.40;;;;;;4953373;28;20032;-89
2023/06/24 11:35:17;;;;;;;4.90;3.10;;;36.20;37.10;;;;;;4969089;28;20027;-90
2023/06/24 11:37:47;;;;;;;4.68;3.00;;;36.50;37.90;;;;;;4954593;29;20023;-87
2023/06/24 11:40:16;;;;;;;4.20;3.00;;;36.70;38.10;;;;;;4947475;29;20098;-87
2023/06/24 11:42:44;;;;;;;4.65;2.80;;;37.30;36.30;;;;;;4954262;28;20034;-91
2023/06/24 11:45:12;;;;;;;3.00;2.70;;;37.40;35.40;;;;;;4956105;29;20019;-89
2023/06/24 11:47:39;;;;;;;3.05;2.72;;;36.50;37.20;;;;;;4955456;29;20114;-91
2023/06/24 11:50:07;;;;;;;7.53;5.10;;;36.80;37.90;;;;;;4955614;29;20094;-92
2023/06/24 11:52:35;;;;;;;7.22;6.05;;;35.90;37.80;;;;;;4969751;28;20488;-91
2023/06/24 11:55:02;;;;;;;4.47;3.70;;;35.30;38.10;;;;;;4955060;29;20103;-91
2023/06/24 11:58:09;;;;;;;6.65;3.80;;;36.30;40.50;;;;;;4986218;28;20027;-94
2023/06/24 12:00:42;;;;;;;3.97;3.05;;;37.20;36.20;;;;;;4934117;29;20026;-93
2023/06/24 12:03:09;;;;;;;3.40;3.10;;;38.00;34.90;;;;;;4949165;28;20050;-91
2023/06/24 12:05:36;;;;;;;3.95;3.00;;;37.70;34.90;;;;;;4969669;28;20054;-91
2023/06/24 12:08:06;;;;;;;4.78;2.75;;;37.50;36.00;;;;;;4970819;28;20127;-93
2023/06/24 12:10:33;;;;;;;3.47;2.75;;;37.90;35.80;;;;;;4955453;29;20067;-91
2023/06/24 12:13:03;;;;;;;3.63;2.85;;;38.00;35.10;;;;;;4948518;28;20070;-89
2023/06/24 12:15:29;;;;;;;3.55;2.65;;;38.10;33.90;;;;;;4969797;28;20491;-89
2023/06/24 12:17:55;;;;;;;3.85;3.00;;;37.50;31.90;;;;;;4970834;28;20070;-92
2023/06/24 12:20:21;;;;;;;3.15;2.58;;;37.50;35.50;;;;;;4987811;28;20111;-92
2023/06/24 12:22:48;;;;;;;3.47;2.72;;;37.20;36.80;;;;;;4954155;28;20016;-91
2023/06/24 12:25:16;;;;;;;3.00;2.25;;;37.80;33.80;;;;;;4969784;28;20019;-91
2023/06/24 12:27:42;;;;;;;3.33;2.70;;;37.90;33.10;;;;;;4955070;28;20023;-89
2023/06/24 12:30:09;;;;;;;3.03;2.42;;;37.90;34.20;;;;;;4958068;29;20095;-95
2023/06/24 12:32:35;;;;;;;3.17;2.67;;;38.00;34.80;;;;;;4960008;28;20087;-91
2023/06/24 12:35:03;;;;;;;4.75;2.83;;;38.20;34.60;;;;;;4974195;28;20381;-91
2023/06/24 12:37:33;;;;;;;4.30;2.78;;;37.90;33.50;;;;;;4959339;29;20070;-91